Time,TemperatureF,DewpointF,PressureIn,WindDirection,WindDirectionDegrees,WindSpeedMPH,WindSpeedGustMPH,Humidity,HourlyPrecipIn,Conditions,Clouds,dailyrainin,SoftwareType,DateUTC
2013-12-19 00:02:00,24.3,18.4,29.77,NNE,22,0.0,0.0,78,0.00,,,0.00,WUHU21636XXSP,2013-12-19 06:02:00,
2013-12-19 00:07:00,24.3,18.4,29.77,NNE,22,0.0,0.0,78,0.00,,,0.00,WUHU21636XXSP,2013-12-19 06:07:00,
2013-12-19 00:12:00,24.3,18.4,29.78,NNE,22,0.0,0.0,78,0.00,,,0.00,WUHU21636XXSP,2013-12-19 06:12:00,
2013-12-19 00:17:00,24.3,18.4,29.77,NNE,22,0.0,0.0,78,0.00,,,0.00,WUHU21636XXSP,2013-12-19 06:17:00,
2013-12-19 00:22:00,24.3,18.4,29.77,NNE,22,0.0,0.0,78,0.00,,,0.00,WUHU21636XXSP,2013-12-19 06:22:00,
2013-12-19 00:27:00,23.9,18.1,29.76,NNE,22,0.0,0.0,78,0.00,,,0.00,WUHU21636XXSP,2013-12-19 06:27:00,
2013-12-19 00:32:00,23.9,18.1,29.76,NNE,22,0.0,0.0,78,0.00,,,0.00,WUHU21636XXSP,2013-12-19 06:32:00,
2013-12-19 00:37:00,23.9,18.4,29.76,NNE,22,0.0,0.0,79,0.00,,,0.00,WUHU21636XXSP,2013-12-19 06:37:00,
2013-12-19 00:42:00,23.9,18.4,29.77,NNE,22,0.0,0.0,79,0.00,,,0.00,WUHU21636XXSP,2013-12-19 06:42:00,
2013-12-19 00:47:00,23.9,18.4,29.77,NNE,22,0.0,0.0,79,0.00,,,0.00,WUHU21636XXSP,2013-12-19 06:47:00,
2013-12-19 00:52:00,23.9,18.4,29.77,NNE,22,0.0,0.0,79,0.00,,,0.00,WUHU21636XXSP,2013-12-19 06:52:00,
2013-12-19 00:57:00,23.9,18.4,29.78,NNE,22,0.0,0.0,79,0.00,,,0.00,WUHU21636XXSP,2013-12-19 06:57:00,
2013-12-19 01:02:00,23.7,18.5,29.78,NNE,22,0.0,0.0,80,0.00,,,0.00,WUHU21636XXSP,2013-12-19 07:02:00,
2013-12-19 01:07:00,23.7,18.5,29.78,NNE,22,0.0,0.0,80,0.00,,,0.00,WUHU21636XXSP,2013-12-19 07:07:00,
2013-12-19 01:12:00,23.7,18.5,29.78,NNE,22,0.0,0.0,80,0.00,,,0.00,WUHU21636XXSP,2013-12-19 07:12:00,
2013-12-19 01:17:00,23.7,18.5,29.78,NNE,22,0.0,0.0,80,0.00,,,0.00,WUHU21636XXSP,2013-12-19 07:17:00,
2013-12-19 01:22:00,23.7,18.5,29.79,NNE,22,0.0,0.0,80,0.00,,,0.00,WUHU21636XXSP,2013-12-19 07:22:00,
2013-12-19 01:27:00,23.7,18.5,29.79,NNE,22,0.0,0.0,80,0.00,,,0.00,WUHU21636XXSP,2013-12-19 07:27:00,
2013-12-19 01:32:00,23.5,18.3,29.79,NNE,22,0.0,0.0,80,0.00,,,0.00,WUHU21636XXSP,2013-12-19 07:32:00,
2013-12-19 01:37:00,23.5,18.3,29.79,NNE,22,0.0,0.0,80,0.00,,,0.00,WUHU21636XXSP,2013-12-19 07:37:00,
2013-12-19 01:42:00,23.5,18.3,29.79,NNE,22,0.0,0.0,80,0.00,,,0.00,WUHU21636XXSP,2013-12-19 07:42:00,
2013-12-19 01:47:00,23.3,18.1,29.80,NNE,22,0.0,0.0,80,0.00,,,0.00,WUHU21636XXSP,2013-12-19 07:47:00,
2013-12-19 01:52:00,23.3,18.1,29.80,NNE,22,0.0,0.0,80,0.00,,,0.00,WUHU21636XXSP,2013-12-19 07:52:00,
2013-12-19 01:57:00,23.3,18.1,29.81,NNE,22,0.0,0.0,80,0.00,,,0.00,WUHU21636XXSP,2013-12-19 07:57:00,
2013-12-19 02:02:00,23.3,18.1,29.81,NNE,22,0.0,0.0,80,0.00,,,0.00,WUHU21636XXSP,2013-12-19 08:02:00,
2013-12-19 02:07:00,23.3,18.1,29.80,NNE,22,0.0,0.0,80,0.00,,,0.00,WUHU21636XXSP,2013-12-19 08:07:00,
2013-12-19 02:12:00,23.3,18.1,29.80,NNE,22,0.0,0.0,80,0.00,,,0.00,WUHU21636XXSP,2013-12-19 08:12:00,
2013-12-19 02:17:00,23.3,18.1,29.80,NNE,22,0.0,0.0,80,0.00,,,0.00,WUHU21636XXSP,2013-12-19 08:17:00,
2013-12-19 02:22:00,23.2,18.0,29.80,NNE,22,0.0,0.0,80,0.00,,,0.00,WUHU21636XXSP,2013-12-19 08:22:00,
2013-12-19 02:27:00,23.2,18.0,29.81,NNE,22,0.0,0.0,80,0.00,,,0.00,WUHU21636XXSP,2013-12-19 08:27:00,
2013-12-19 02:32:00,23.0,17.7,29.81,NNE,22,0.0,0.0,80,0.00,,,0.00,WUHU21636XXSP,2013-12-19 08:32:00,
2013-12-19 02:37:00,22.8,17.3,29.81,NNE,22,0.0,0.0,79,0.00,,,0.00,WUHU21636XXSP,2013-12-19 08:37:00,
2013-12-19 02:42:00,22.6,17.1,29.82,NNE,22,0.0,0.0,79,0.00,,,0.00,WUHU21636XXSP,2013-12-19 08:42:00,
2013-12-19 02:47:00,22.6,17.1,29.82,NNE,22,0.0,0.0,79,0.00,,,0.00,WUHU21636XXSP,2013-12-19 08:47:00,
2013-12-19 02:52:00,22.6,17.3,29.83,NNE,22,0.0,0.0,80,0.00,,,0.00,WUHU21636XXSP,2013-12-19 08:52:00,
2013-12-19 02:57:00,22.6,17.3,29.83,NNE,22,0.0,0.0,80,0.00,,,0.00,WUHU21636XXSP,2013-12-19 08:57:00,
2013-12-19 03:02:00,22.6,17.3,29.83,NNE,22,0.0,0.0,80,0.00,,,0.00,WUHU21636XXSP,2013-12-19 09:02:00,
2013-12-19 03:07:00,22.4,17.1,29.83,NNE,22,0.0,0.0,80,0.00,,,0.00,WUHU21636XXSP,2013-12-19 09:07:00,
2013-12-19 03:12:00,22.4,17.1,29.82,NNE,22,0.0,0.0,80,0.00,,,0.00,WUHU21636XXSP,2013-12-19 09:12:00,
2013-12-19 03:17:00,22.4,17.1,29.83,NNE,22,0.0,0.0,80,0.00,,,0.00,WUHU21636XXSP,2013-12-19 09:17:00,
2013-12-19 03:22:00,22.4,17.1,29.82,NNE,22,0.0,0.0,80,0.00,,,0.00,WUHU21636XXSP,2013-12-19 09:22:00,
2013-12-19 03:27:00,22.4,17.1,29.82,NNE,22,0.0,0.0,80,0.00,,,0.00,WUHU21636XXSP,2013-12-19 09:27:00,
2013-12-19 03:32:00,22.4,17.1,29.82,NNE,22,0.0,0.0,80,0.00,,,0.00,WUHU21636XXSP,2013-12-19 09:32:00,
2013-12-19 03:37:00,22.3,17.0,29.82,NNE,22,0.0,0.0,80,0.00,,,0.00,WUHU21636XXSP,2013-12-19 09:37:00,
2013-12-19 03:42:00,22.3,17.0,29.82,NNE,22,0.0,0.0,80,0.00,,,0.00,WUHU21636XXSP,2013-12-19 09:42:00,
2013-12-19 03:47:00,22.4,17.1,29.82,NNE,22,0.0,0.0,80,0.00,,,0.00,WUHU21636XXSP,2013-12-19 09:47:00,
2013-12-19 03:52:00,22.3,17.0,29.82,NNE,22,0.0,0.0,80,0.00,,,0.00,WUHU21636XXSP,2013-12-19 09:52:00,
2013-12-19 03:57:00,22.3,17.0,29.82,NNE,22,0.0,0.0,80,0.00,,,0.00,WUHU21636XXSP,2013-12-19 09:57:00,
2013-12-19 04:02:00,22.3,17.0,29.82,NNE,22,0.0,0.0,80,0.00,,,0.00,WUHU21636XXSP,2013-12-19 10:02:00,
2013-12-19 04:07:00,22.4,17.1,29.83,NNE,22,0.0,0.0,80,0.00,,,0.00,WUHU21636XXSP,2013-12-19 10:07:00,
2013-12-19 04:12:00,22.4,17.1,29.84,NNE,22,0.0,0.0,80,0.00,,,0.00,WUHU21636XXSP,2013-12-19 10:12:00,
2013-12-19 04:17:00,22.4,17.4,29.84,NNE,22,0.0,0.0,81,0.00,,,0.00,WUHU21636XXSP,2013-12-19 10:17:00,
2013-12-19 04:22:00,22.4,17.4,29.84,NNE,22,0.0,0.0,81,0.00,,,0.00,WUHU21636XXSP,2013-12-19 10:22:00,
2013-12-19 04:27:00,22.8,17.8,29.83,NNE,22,0.0,0.0,81,0.00,,,0.00,WUHU21636XXSP,2013-12-19 10:27:00,
2013-12-19 04:32:00,22.8,18.1,29.84,NNE,22,0.0,0.0,82,0.00,,,0.00,WUHU21636XXSP,2013-12-19 10:32:00,
2013-12-19 04:37:00,23.0,18.3,29.84,NNE,22,0.0,0.0,82,0.00,,,0.00,WUHU21636XXSP,2013-12-19 10:37:00,
2013-12-19 04:42:00,23.2,18.5,29.84,NNE,22,0.0,0.0,82,0.00,,,0.00,WUHU21636XXSP,2013-12-19 10:42:00,
2013-12-19 04:47:00,23.3,18.6,29.84,NNE,22,0.0,0.0,82,0.00,,,0.00,WUHU21636XXSP,2013-12-19 10:47:00,
2013-12-19 04:52:00,23.3,18.6,29.84,NNE,22,0.0,0.0,82,0.00,,,0.00,WUHU21636XXSP,2013-12-19 10:52:00,
2013-12-19 04:57:00,23.3,18.6,29.84,NNE,22,0.0,0.0,82,0.00,,,0.00,WUHU21636XXSP,2013-12-19 10:57:00,
2013-12-19 05:02:00,23.3,18.6,29.84,NNE,22,0.0,0.0,82,0.00,,,0.00,WUHU21636XXSP,2013-12-19 11:02:00,
2013-12-19 05:07:00,23.3,18.6,29.85,NNE,22,0.0,0.0,82,0.00,,,0.00,WUHU21636XXSP,2013-12-19 11:07:00,
2013-12-19 05:12:00,23.3,18.6,29.85,NNE,22,0.0,0.0,82,0.00,,,0.00,WUHU21636XXSP,2013-12-19 11:12:00,
2013-12-19 05:17:00,23.5,18.8,29.85,NNE,22,0.0,0.0,82,0.00,,,0.00,WUHU21636XXSP,2013-12-19 11:17:00,
2013-12-19 05:22:00,23.3,18.6,29.86,NNE,22,0.0,0.0,82,0.00,,,0.00,WUHU21636XXSP,2013-12-19 11:22:00,
2013-12-19 05:27:00,23.5,18.8,29.85,NNE,22,0.0,0.0,82,0.00,,,0.00,WUHU21636XXSP,2013-12-19 11:27:00,
2013-12-19 05:32:00,23.5,18.8,29.85,NNE,22,0.0,0.0,82,0.00,,,0.00,WUHU21636XXSP,2013-12-19 11:32:00,
2013-12-19 05:37:00,23.5,18.8,29.85,NNE,22,0.0,0.0,82,0.00,,,0.00,WUHU21636XXSP,2013-12-19 11:37:00,
2013-12-19 05:42:00,23.7,19.0,29.85,NNE,22,0.0,0.0,82,0.00,,,0.00,WUHU21636XXSP,2013-12-19 11:42:00,
2013-12-19 05:47:00,23.7,19.0,29.85,NNE,22,0.0,0.0,82,0.00,,,0.00,WUHU21636XXSP,2013-12-19 11:47:00,
2013-12-19 05:52:00,23.7,19.0,29.85,NNE,22,0.0,0.0,82,0.00,,,0.00,WUHU21636XXSP,2013-12-19 11:52:00,
2013-12-19 05:57:00,23.9,19.2,29.85,NNE,22,0.0,0.0,82,0.00,,,0.00,WUHU21636XXSP,2013-12-19 11:57:00,
2013-12-19 06:02:00,23.9,19.2,29.86,NNE,22,0.0,0.0,82,0.00,,,0.00,WUHU21636XXSP,2013-12-19 12:02:00,
2013-12-19 06:07:00,23.9,19.2,29.86,NNE,22,0.0,0.0,82,0.00,,,0.00,WUHU21636XXSP,2013-12-19 12:07:00,
2013-12-19 06:12:00,24.1,19.7,29.86,NNE,22,0.0,0.0,83,0.00,,,0.00,WUHU21636XXSP,2013-12-19 12:12:00,
2013-12-19 06:17:00,24.3,19.5,29.86,NNE,22,0.0,0.0,82,0.00,,,0.00,WUHU21636XXSP,2013-12-19 12:17:00,
2013-12-19 06:22:00,24.3,19.5,29.86,NNE,22,0.0,0.0,82,0.00,,,0.00,WUHU21636XXSP,2013-12-19 12:22:00,
2013-12-19 06:27:00,24.5,19.7,29.87,NNE,22,0.0,0.0,82,0.00,,,0.00,WUHU21636XXSP,2013-12-19 12:27:00,
2013-12-19 06:32:00,24.5,19.7,29.87,NNE,22,0.0,0.0,82,0.00,,,0.00,WUHU21636XXSP,2013-12-19 12:32:00,
2013-12-19 06:37:00,24.5,19.5,29.87,NNE,22,0.0,0.0,81,0.00,,,0.00,WUHU21636XXSP,2013-12-19 12:37:00,
2013-12-19 06:42:00,24.5,19.2,29.87,NNE,22,0.0,0.0,80,0.00,,,0.00,WUHU21636XXSP,2013-12-19 12:42:00,
2013-12-19 06:47:00,24.5,19.2,29.88,NNE,22,0.0,0.0,80,0.00,,,0.00,WUHU21636XXSP,2013-12-19 12:47:00,
2013-12-19 06:52:00,24.5,18.9,29.88,NNE,22,0.0,0.0,79,0.00,,,0.00,WUHU21636XXSP,2013-12-19 12:52:00,
2013-12-19 06:57:00,24.5,18.6,29.89,NNE,22,0.0,0.0,78,0.00,,,0.00,WUHU21636XXSP,2013-12-19 12:57:00,
2013-12-19 07:02:00,24.5,18.6,29.89,NNE,22,0.0,0.0,78,0.00,,,0.00,WUHU21636XXSP,2013-12-19 13:02:00,
2013-12-19 07:07:00,24.3,18.4,29.89,NNE,22,0.0,0.0,78,0.00,,,0.00,WUHU21636XXSP,2013-12-19 13:07:00,
2013-12-19 07:12:00,24.3,18.1,29.90,NNE,22,0.0,0.0,77,0.00,,,0.00,WUHU21636XXSP,2013-12-19 13:12:00,
2013-12-19 07:17:00,24.3,18.1,29.91,NNE,22,0.0,0.0,77,0.00,,,0.00,WUHU21636XXSP,2013-12-19 13:17:00,
2013-12-19 07:22:00,24.3,18.1,29.91,NNE,22,0.0,0.0,77,0.00,,,0.00,WUHU21636XXSP,2013-12-19 13:22:00,
2013-12-19 07:27:00,24.5,18.0,29.91,NNE,22,0.0,0.0,76,0.00,,,0.00,WUHU21636XXSP,2013-12-19 13:27:00,
2013-12-19 07:32:00,24.3,17.8,29.91,NNE,22,0.0,0.0,76,0.00,,,0.00,WUHU21636XXSP,2013-12-19 13:32:00,
2013-12-19 07:37:00,24.3,17.5,29.92,NNE,22,0.0,0.0,75,0.00,,,0.00,WUHU21636XXSP,2013-12-19 13:37:00,
2013-12-19 07:42:00,24.3,17.5,29.92,NNE,22,0.0,0.0,75,0.00,,,0.00,WUHU21636XXSP,2013-12-19 13:42:00,
2013-12-19 07:47:00,24.3,17.5,29.91,NNE,22,0.0,0.0,75,0.00,,,0.00,WUHU21636XXSP,2013-12-19 13:47:00,
2013-12-19 07:52:00,24.3,17.2,29.90,NNE,22,0.0,0.0,74,0.00,,,0.00,WUHU21636XXSP,2013-12-19 13:52:00,
2013-12-19 07:57:00,24.3,16.9,29.90,NNE,22,0.0,0.0,73,0.00,,,0.00,WUHU21636XXSP,2013-12-19 13:57:00,
2013-12-19 08:02:00,24.3,16.9,29.91,NNE,22,0.0,0.0,73,0.00,,,0.00,WUHU21636XXSP,2013-12-19 14:02:00,
2013-12-19 08:07:00,24.3,16.9,29.92,NNE,22,0.0,0.0,73,0.00,,,0.00,WUHU21636XXSP,2013-12-19 14:07:00,
2013-12-19 08:12:00,24.3,16.6,29.92,NNE,22,0.0,0.0,72,0.00,,,0.00,WUHU21636XXSP,2013-12-19 14:12:00,
2013-12-19 08:17:00,24.3,16.3,29.92,NNE,22,0.0,0.0,71,0.00,,,0.00,WUHU21636XXSP,2013-12-19 14:17:00,
2013-12-19 08:22:00,24.3,16.3,29.93,NNE,22,0.0,0.0,71,0.00,,,0.00,WUHU21636XXSP,2013-12-19 14:22:00,
2013-12-19 08:27:00,24.3,16.3,29.94,NNE,22,0.0,0.0,71,0.00,,,0.00,WUHU21636XXSP,2013-12-19 14:27:00,
2013-12-19 08:32:00,24.3,15.9,29.94,NNE,22,0.0,0.0,70,0.00,,,0.00,WUHU21636XXSP,2013-12-19 14:32:00,
2013-12-19 08:37:00,24.3,15.9,29.95,NNE,22,0.0,0.0,70,0.00,,,0.00,WUHU21636XXSP,2013-12-19 14:37:00,
2013-12-19 08:42:00,24.5,16.5,29.94,NNE,22,0.0,0.0,71,0.00,,,0.00,WUHU21636XXSP,2013-12-19 14:42:00,
2013-12-19 08:47:00,24.9,16.5,29.94,NNE,22,0.0,0.0,70,0.00,,,0.00,WUHU21636XXSP,2013-12-19 14:47:00,
2013-12-19 08:52:00,24.9,16.2,29.94,NNE,22,0.0,0.0,69,0.00,,,0.00,WUHU21636XXSP,2013-12-19 14:52:00,
2013-12-19 08:57:00,24.5,15.5,29.95,NNE,22,0.0,0.0,68,0.00,,,0.00,WUHU21636XXSP,2013-12-19 14:57:00,
2013-12-19 09:02:00,24.9,15.5,29.95,NNE,22,0.0,0.0,67,0.00,,,0.00,WUHU21636XXSP,2013-12-19 15:02:00,
2013-12-19 09:07:00,24.9,15.5,29.95,NNE,22,0.0,0.0,67,0.00,,,0.00,WUHU21636XXSP,2013-12-19 15:07:00,
2013-12-19 09:12:00,24.9,15.5,29.95,NNE,22,0.0,0.0,67,0.00,,,0.00,WUHU21636XXSP,2013-12-19 15:12:00,
2013-12-19 09:17:00,25.1,15.4,29.95,NNE,22,0.0,0.0,66,0.00,,,0.00,WUHU21636XXSP,2013-12-19 15:17:00,
2013-12-19 09:22:00,25.1,15.7,29.95,NNE,22,0.0,0.0,67,0.00,,,0.00,WUHU21636XXSP,2013-12-19 15:22:00,
2013-12-19 09:27:00,25.1,15.0,29.95,NNE,22,0.0,0.0,65,0.00,,,0.00,WUHU21636XXSP,2013-12-19 15:27:00,
2013-12-19 09:32:00,24.7,15.0,29.96,NNE,22,0.0,0.0,66,0.00,,,0.00,WUHU21636XXSP,2013-12-19 15:32:00,
2013-12-19 09:37:00,24.9,14.8,29.96,NNE,22,0.0,0.0,65,0.00,,,0.00,WUHU21636XXSP,2013-12-19 15:37:00,
2013-12-19 09:42:00,24.5,14.4,29.97,NNE,22,0.0,0.0,65,0.00,,,0.00,WUHU21636XXSP,2013-12-19 15:42:00,
2013-12-19 09:47:00,24.9,15.2,29.97,NNE,22,0.0,0.0,66,0.00,,,0.00,WUHU21636XXSP,2013-12-19 15:47:00,
2013-12-19 09:52:00,24.9,15.2,29.97,NNE,22,0.0,0.0,66,0.00,,,0.00,WUHU21636XXSP,2013-12-19 15:52:00,
2013-12-19 09:57:00,24.9,14.8,29.97,NNE,22,0.0,0.0,65,0.00,,,0.00,WUHU21636XXSP,2013-12-19 15:57:00,
2013-12-19 10:02:00,24.9,15.2,29.97,NNE,22,0.0,0.0,66,0.00,,,0.00,WUHU21636XXSP,2013-12-19 16:02:00,
2013-12-19 10:07:00,25.1,15.0,29.98,NNE,22,0.0,0.0,65,0.00,,,0.00,WUHU21636XXSP,2013-12-19 16:07:00,
2013-12-19 10:12:00,25.1,15.4,29.98,NNE,22,0.0,0.0,66,0.00,,,0.00,WUHU21636XXSP,2013-12-19 16:12:00,
2013-12-19 10:17:00,25.2,15.1,29.98,NNE,22,0.0,0.0,65,0.00,,,0.00,WUHU21636XXSP,2013-12-19 16:17:00,
2013-12-19 10:22:00,25.2,15.5,29.98,NNE,22,0.0,0.0,66,0.00,,,0.00,WUHU21636XXSP,2013-12-19 16:22:00,
2013-12-19 10:27:00,25.4,15.7,29.97,NNE,22,2.2,2.2,66,0.00,,,0.00,WUHU21636XXSP,2013-12-19 16:27:00,
2013-12-19 10:32:00,25.4,15.0,29.97,NNE,22,0.0,2.2,64,0.00,,,0.00,WUHU21636XXSP,2013-12-19 16:32:00,
2013-12-19 10:37:00,25.4,15.3,29.97,NNE,22,0.0,0.0,65,0.00,,,0.00,WUHU21636XXSP,2013-12-19 16:37:00,
2013-12-19 10:42:00,25.4,15.3,29.97,NNE,22,0.0,0.0,65,0.00,,,0.00,WUHU21636XXSP,2013-12-19 16:42:00,
2013-12-19 10:47:00,25.4,15.7,29.97,NNE,22,0.0,0.0,66,0.00,,,0.00,WUHU21636XXSP,2013-12-19 16:47:00,
2013-12-19 10:52:00,25.4,15.3,29.97,NNE,22,0.0,0.0,65,0.00,,,0.00,WUHU21636XXSP,2013-12-19 16:52:00,
2013-12-19 10:57:00,25.6,15.2,29.97,NNE,22,0.0,0.0,64,0.00,,,0.00,WUHU21636XXSP,2013-12-19 16:57:00,
2013-12-19 11:03:00,25.8,15.7,29.97,NNE,22,0.0,0.0,65,0.00,,,0.00,WUHU21636XXSP,2013-12-19 17:03:00,
2013-12-19 11:08:00,26.1,16.0,29.97,NNE,22,0.0,0.0,65,0.00,,,0.00,WUHU21636XXSP,2013-12-19 17:08:00,
2013-12-19 11:13:00,26.1,15.7,29.96,NNE,22,0.0,0.0,64,0.00,,,0.00,WUHU21636XXSP,2013-12-19 17:13:00,
2013-12-19 11:18:00,26.1,15.7,29.95,NNE,22,0.0,0.0,64,0.00,,,0.00,WUHU21636XXSP,2013-12-19 17:18:00,
2013-12-19 11:23:00,26.1,15.7,29.96,NNE,22,0.0,0.0,64,0.00,,,0.00,WUHU21636XXSP,2013-12-19 17:23:00,
2013-12-19 11:28:00,26.1,15.7,29.96,NNE,22,0.0,0.0,64,0.00,,,0.00,WUHU21636XXSP,2013-12-19 17:28:00,
2013-12-19 11:33:00,26.1,15.7,29.96,NNE,22,0.0,0.0,64,0.00,,,0.00,WUHU21636XXSP,2013-12-19 17:33:00,
2013-12-19 11:38:00,26.4,15.9,29.95,NNE,22,0.0,0.0,64,0.00,,,0.00,WUHU21636XXSP,2013-12-19 17:38:00,
2013-12-19 11:43:00,26.4,15.9,29.96,NNE,22,0.0,0.0,64,0.00,,,0.00,WUHU21636XXSP,2013-12-19 17:43:00,
2013-12-19 11:48:00,26.4,15.9,29.96,NNE,22,0.0,0.0,64,0.00,,,0.00,WUHU21636XXSP,2013-12-19 17:48:00,
2013-12-19 11:53:00,26.1,15.7,29.95,NNE,22,0.0,0.0,64,0.00,,,0.00,WUHU21636XXSP,2013-12-19 17:53:00,
2013-12-19 11:58:00,26.1,15.7,29.95,NNE,22,0.0,0.0,64,0.00,,,0.00,WUHU21636XXSP,2013-12-19 17:58:00,
2013-12-19 12:03:00,26.6,16.1,29.95,NNE,22,0.0,0.0,64,0.00,,,0.00,WUHU21636XXSP,2013-12-19 18:03:00,
2013-12-19 12:05:00,26.8,16.3,29.94,NNE,22,0.0,0.0,64,0.00,,,0.00,WUHU21636XXSP,2013-12-19 18:05:00,
2013-12-19 12:10:00,27.0,16.1,29.94,NNE,22,0.0,0.0,63,0.00,,,0.00,WUHU21636XXSP,2013-12-19 18:10:00,
2013-12-19 12:15:00,27.1,16.6,29.94,NNE,22,5.8,5.8,64,0.00,,,0.00,WUHU21636XXSP,2013-12-19 18:15:00,
2013-12-19 12:20:00,27.1,15.8,29.94,NNE,22,0.8,10.6,62,0.00,,,0.00,WUHU21636XXSP,2013-12-19 18:20:00,
2013-12-19 12:25:00,26.8,15.9,29.95,NNE,22,9.2,14.6,63,0.00,,,0.00,WUHU21636XXSP,2013-12-19 18:25:00,
2013-12-19 12:30:00,26.1,15.7,29.95,NNE,22,5.0,14.6,64,0.00,,,0.00,WUHU21636XXSP,2013-12-19 18:30:00,
2013-12-19 12:35:00,26.1,15.3,29.94,NNE,22,5.2,5.2,63,0.00,,,0.00,WUHU21636XXSP,2013-12-19 18:35:00,
2013-12-19 12:40:00,26.1,15.7,29.94,NNE,22,5.2,5.2,64,0.00,,,0.00,WUHU21636XXSP,2013-12-19 18:40:00,
2013-12-19 12:45:00,26.4,15.9,29.94,NNE,22,5.2,5.2,64,0.00,,,0.00,WUHU21636XXSP,2013-12-19 18:45:00,
2013-12-19 12:50:00,26.6,16.1,29.93,NNE,22,7.0,7.0,64,0.00,,,0.00,WUHU21636XXSP,2013-12-19 18:50:00,
2013-12-19 12:55:00,27.0,16.5,29.92,NNE,22,3.5,7.0,64,0.00,,,0.00,WUHU21636XXSP,2013-12-19 18:55:00,
2013-12-19 13:00:00,27.3,16.8,29.92,NNE,22,0.0,7.0,64,0.00,,,0.00,WUHU21636XXSP,2013-12-19 19:00:00,
2013-12-19 13:05:00,27.3,16.0,29.92,NNE,22,0.0,0.8,62,0.00,,,0.00,WUHU21636XXSP,2013-12-19 19:05:00,
2013-12-19 13:10:00,27.7,16.8,29.92,NNE,22,0.0,0.0,63,0.00,,,0.00,WUHU21636XXSP,2013-12-19 19:10:00,
2013-12-19 13:15:00,27.7,16.8,29.92,NNE,22,2.2,2.2,63,0.00,,,0.00,WUHU21636XXSP,2013-12-19 19:15:00,
2013-12-19 13:20:00,28.2,16.9,29.92,NNE,22,0.0,2.2,62,0.00,,,0.00,WUHU21636XXSP,2013-12-19 19:20:00,
2013-12-19 13:25:00,27.7,16.4,29.92,NNE,22,0.0,2.2,62,0.00,,,0.00,WUHU21636XXSP,2013-12-19 19:25:00,
2013-12-19 13:30:00,27.7,16.8,29.92,NNE,22,0.0,0.0,63,0.00,,,0.00,WUHU21636XXSP,2013-12-19 19:30:00,
2013-12-19 13:35:00,27.7,16.8,29.93,NNE,22,1.2,1.2,63,0.00,,,0.00,WUHU21636XXSP,2013-12-19 19:35:00,
2013-12-19 13:40:00,27.3,16.8,29.92,NNE,22,10.2,10.2,64,0.00,,,0.00,WUHU21636XXSP,2013-12-19 19:40:00,
2013-12-19 13:45:00,26.8,16.3,29.92,NNE,22,7.7,10.2,64,0.00,,,0.00,WUHU21636XXSP,2013-12-19 19:45:00,
2013-12-19 13:50:00,26.8,16.3,29.92,NNE,22,7.6,10.2,64,0.00,,,0.00,WUHU21636XXSP,2013-12-19 19:50:00,
2013-12-19 13:55:00,26.6,16.4,29.91,NNE,22,8.0,8.0,65,0.00,,,0.00,WUHU21636XXSP,2013-12-19 19:55:00,
2013-12-19 14:00:00,26.4,16.2,29.91,NNE,22,8.0,8.0,65,0.00,,,0.00,WUHU21636XXSP,2013-12-19 20:00:00,
2013-12-19 14:05:00,26.4,16.6,29.92,NNE,22,8.0,8.0,66,0.00,,,0.00,WUHU21636XXSP,2013-12-19 20:05:00,
2013-12-19 14:10:00,26.4,16.6,29.92,NNE,22,8.0,8.0,66,0.00,,,0.00,WUHU21636XXSP,2013-12-19 20:10:00,
2013-12-19 14:15:00,26.4,16.6,29.93,NNE,22,8.0,8.0,66,0.00,,,0.00,WUHU21636XXSP,2013-12-19 20:15:00,
2013-12-19 14:20:00,26.4,16.6,29.92,NNE,22,8.0,8.0,66,0.00,,,0.00,WUHU21636XXSP,2013-12-19 20:20:00,
2013-12-19 14:25:00,26.4,16.9,29.92,NNE,22,8.0,8.0,67,0.00,,,0.00,WUHU21636XXSP,2013-12-19 20:25:00,
2013-12-19 14:30:00,26.6,17.1,29.91,NNE,22,8.0,8.0,67,0.00,,,0.00,WUHU21636XXSP,2013-12-19 20:30:00,
2013-12-19 14:35:00,26.4,16.9,29.91,NNE,22,8.0,8.0,67,0.00,,,0.00,WUHU21636XXSP,2013-12-19 20:35:00,
2013-12-19 14:40:00,26.1,16.7,29.90,NNE,22,8.0,8.0,67,0.00,,,0.00,WUHU21636XXSP,2013-12-19 20:40:00,
2013-12-19 14:45:00,26.0,17.0,29.91,NNE,22,8.0,8.0,68,0.00,,,0.00,WUHU21636XXSP,2013-12-19 20:45:00,
2013-12-19 14:50:00,26.0,17.0,29.91,NNE,22,8.0,8.0,68,0.00,,,0.00,WUHU21636XXSP,2013-12-19 20:50:00,
2013-12-19 14:55:00,25.6,16.6,29.91,NNE,22,8.0,8.0,68,0.00,,,0.00,WUHU21636XXSP,2013-12-19 20:55:00,
2013-12-19 15:00:00,25.6,16.6,29.91,NNE,22,7.1,8.0,68,0.00,,,0.00,WUHU21636XXSP,2013-12-19 21:00:00,
2013-12-19 15:05:00,25.6,16.6,29.92,NNE,22,5.8,8.0,68,0.00,,,0.00,WUHU21636XXSP,2013-12-19 21:05:00,
2013-12-19 15:10:00,25.8,17.1,29.91,NNE,22,10.2,10.2,69,0.00,,,0.00,WUHU21636XXSP,2013-12-19 21:10:00,
2013-12-19 15:16:00,26.0,17.3,29.91,NNE,22,11.3,27.2,69,0.00,,,0.00,WUHU21636XXSP,2013-12-19 21:16:00,
2013-12-19 15:21:00,25.8,16.8,29.92,NNE,22,1.6,27.2,68,0.00,,,0.00,WUHU21636XXSP,2013-12-19 21:21:00,
2013-12-19 15:26:00,25.8,17.1,29.92,NNE,22,0.0,17.4,69,0.00,,,0.00,WUHU21636XXSP,2013-12-19 21:26:00,
2013-12-19 15:31:00,25.8,17.1,29.92,NNE,22,0.0,1.6,69,0.00,,,0.00,WUHU21636XXSP,2013-12-19 21:31:00,
2013-12-19 15:36:00,25.8,17.1,29.92,NNE,22,0.0,0.0,69,0.00,,,0.00,WUHU21636XXSP,2013-12-19 21:36:00,
2013-12-19 15:41:00,25.8,17.1,29.92,NNE,22,0.0,0.0,69,0.00,,,0.00,WUHU21636XXSP,2013-12-19 21:41:00,
2013-12-19 15:47:00,25.8,17.1,29.93,NNE,22,0.0,0.0,69,0.00,,,0.00,WUHU21636XXSP,2013-12-19 21:47:00,
2013-12-19 15:54:00,25.6,16.9,29.92,NNE,22,0.0,0.0,69,0.00,,,0.00,WUHU21636XXSP,2013-12-19 21:54:00,
2013-12-19 15:59:00,25.4,16.7,29.93,NNE,22,0.0,0.0,69,0.00,,,0.00,WUHU21636XXSP,2013-12-19 21:59:00,
2013-12-19 16:04:00,25.4,17.0,29.93,NNE,22,0.0,0.0,70,0.00,,,0.00,WUHU21636XXSP,2013-12-19 22:04:00,
2013-12-19 16:09:00,25.2,16.8,29.94,NNE,22,0.0,0.0,70,0.00,,,0.00,WUHU21636XXSP,2013-12-19 22:09:00,
2013-12-19 16:14:00,25.2,16.8,29.94,NNE,22,0.0,0.0,70,0.00,,,0.00,WUHU21636XXSP,2013-12-19 22:14:00,
2013-12-19 16:19:00,25.2,16.8,29.94,NNE,22,0.0,0.0,70,0.00,,,0.00,WUHU21636XXSP,2013-12-19 22:19:00,
2013-12-19 16:24:00,25.2,16.8,29.94,NNE,22,0.0,0.0,70,0.00,,,0.00,WUHU21636XXSP,2013-12-19 22:24:00,
2013-12-19 16:29:00,25.1,16.7,29.94,NNE,22,0.0,16.4,70,0.00,,,0.00,WUHU21636XXSP,2013-12-19 22:29:00,
2013-12-19 16:34:00,24.9,16.5,29.95,NNE,22,0.0,16.4,70,0.00,,,0.00,WUHU21636XXSP,2013-12-19 22:34:00,
2013-12-19 16:39:00,24.9,16.9,29.95,NNE,22,4.0,4.8,71,0.00,,,0.00,WUHU21636XXSP,2013-12-19 22:39:00,
2013-12-19 16:44:00,25.1,17.4,29.95,NNE,22,0.0,4.8,72,0.00,,,0.00,WUHU21636XXSP,2013-12-19 22:44:00,
2013-12-19 16:49:00,25.1,17.4,29.94,NNE,22,0.0,0.0,72,0.00,,,0.00,WUHU21636XXSP,2013-12-19 22:49:00,
2013-12-19 16:54:00,25.2,18.1,29.94,NNE,22,0.0,0.0,74,0.00,,,0.00,WUHU21636XXSP,2013-12-19 22:54:00,
2013-12-19 16:59:00,25.1,17.7,29.94,NNE,22,0.0,0.0,73,0.00,,,0.00,WUHU21636XXSP,2013-12-19 22:59:00,
2013-12-19 17:04:00,25.1,17.4,29.94,NNE,22,0.0,0.0,72,0.00,,,0.00,WUHU21636XXSP,2013-12-19 23:04:00,
2013-12-19 17:09:00,25.1,17.4,29.94,NNE,22,0.0,0.0,72,0.00,,,0.00,WUHU21636XXSP,2013-12-19 23:09:00,
2013-12-19 17:14:00,25.1,17.4,29.94,NNE,22,0.0,0.0,72,0.00,,,0.00,WUHU21636XXSP,2013-12-19 23:14:00,
2013-12-19 17:19:00,24.9,17.2,29.94,NNE,22,0.0,0.0,72,0.00,,,0.00,WUHU21636XXSP,2013-12-19 23:19:00,
2013-12-19 17:24:00,25.1,17.4,29.94,NNE,22,0.0,0.0,72,0.00,,,0.00,WUHU21636XXSP,2013-12-19 23:24:00,
2013-12-19 17:29:00,24.9,17.2,29.94,NNE,22,0.0,0.0,72,0.00,,,0.00,WUHU21636XXSP,2013-12-19 23:29:00,
2013-12-19 17:34:00,24.9,17.2,29.93,NNE,22,0.0,0.0,72,0.00,,,0.00,WUHU21636XXSP,2013-12-19 23:34:00,
2013-12-19 17:39:00,24.9,17.2,29.93,NNE,22,0.0,0.0,72,0.00,,,0.00,WUHU21636XXSP,2013-12-19 23:39:00,
2013-12-19 17:44:00,24.9,17.5,29.93,NNE,22,0.0,0.0,73,0.00,,,0.00,WUHU21636XXSP,2013-12-19 23:44:00,
2013-12-19 17:49:00,24.9,17.2,29.93,NNE,22,0.0,0.0,72,0.00,,,0.00,WUHU21636XXSP,2013-12-19 23:49:00,
2013-12-19 17:54:00,24.9,17.5,29.93,NNE,22,0.0,0.0,73,0.00,,,0.00,WUHU21636XXSP,2013-12-19 23:54:00,
2013-12-19 17:59:00,24.9,17.5,29.93,NNE,22,0.0,0.0,73,0.00,,,0.00,WUHU21636XXSP,2013-12-19 23:59:00,
2013-12-19 18:04:00,24.9,17.5,29.93,NNE,22,0.0,0.0,73,0.00,,,0.00,WUHU21636XXSP,2013-12-20 00:04:00,
2013-12-19 18:09:00,24.9,17.5,29.93,NNE,22,0.0,0.0,73,0.00,,,0.00,WUHU21636XXSP,2013-12-20 00:09:00,
2013-12-19 18:14:00,24.9,17.5,29.92,NNE,22,0.0,0.0,73,0.00,,,0.00,WUHU21636XXSP,2013-12-20 00:14:00,
2013-12-19 18:19:00,24.9,17.5,29.92,NNE,22,0.0,0.0,73,0.00,,,0.00,WUHU21636XXSP,2013-12-20 00:19:00,
2013-12-19 18:24:00,24.9,17.5,29.91,NNE,22,0.0,0.0,73,0.00,,,0.00,WUHU21636XXSP,2013-12-20 00:24:00,
2013-12-19 18:29:00,24.9,17.5,29.91,NNE,22,0.0,0.0,73,0.00,,,0.00,WUHU21636XXSP,2013-12-20 00:29:00,
2013-12-19 18:34:00,25.1,17.7,29.92,NNE,22,0.0,0.0,73,0.00,,,0.00,WUHU21636XXSP,2013-12-20 00:34:00,
2013-12-19 18:39:00,25.1,17.7,29.91,NNE,22,0.0,0.0,73,0.00,,,0.00,WUHU21636XXSP,2013-12-20 00:39:00,
2013-12-19 18:44:00,24.9,17.5,29.91,NNE,22,0.0,0.0,73,0.00,,,0.00,WUHU21636XXSP,2013-12-20 00:44:00,
2013-12-19 18:49:00,24.9,17.5,29.91,NNE,22,0.0,0.0,73,0.00,,,0.00,WUHU21636XXSP,2013-12-20 00:49:00,
2013-12-19 18:54:00,24.9,17.5,29.91,NNE,22,0.0,0.0,73,0.00,,,0.00,WUHU21636XXSP,2013-12-20 00:54:00,
2013-12-19 18:59:00,24.9,17.5,29.91,NNE,22,0.0,0.0,73,0.00,,,0.00,WUHU21636XXSP,2013-12-20 00:59:00,
2013-12-19 19:04:00,24.9,17.5,29.91,NNE,22,0.0,0.0,73,0.00,,,0.00,WUHU21636XXSP,2013-12-20 01:04:00,
2013-12-19 19:09:00,25.1,18.0,29.91,NNE,22,0.0,18.6,74,0.00,,,0.00,WUHU21636XXSP,2013-12-20 01:09:00,
2013-12-19 19:14:00,25.2,18.1,29.91,NNE,22,0.0,18.6,74,0.00,,,0.00,WUHU21636XXSP,2013-12-20 01:14:00,
2013-12-19 19:19:00,25.2,17.8,29.92,NNE,22,1.2,1.2,73,0.00,,,0.00,WUHU21636XXSP,2013-12-20 01:19:00,
2013-12-19 19:24:00,25.2,18.1,29.92,NNE,22,0.0,12.4,74,0.00,,,0.00,WUHU21636XXSP,2013-12-20 01:24:00,
2013-12-19 19:29:00,25.2,17.8,29.93,NNE,22,7.5,12.4,73,0.00,,,0.00,WUHU21636XXSP,2013-12-20 01:29:00,
2013-12-19 19:34:00,25.1,17.7,29.92,NNE,22,0.0,9.2,73,0.00,,,0.00,WUHU21636XXSP,2013-12-20 01:34:00,
2013-12-19 19:39:00,25.1,18.0,29.92,NNE,22,1.2,2.6,74,0.00,,,0.00,WUHU21636XXSP,2013-12-20 01:39:00,
2013-12-19 19:44:00,25.1,18.0,29.92,NNE,22,9.8,14.2,74,0.00,,,0.00,WUHU21636XXSP,2013-12-20 01:44:00,
2013-12-19 19:49:00,25.2,18.1,29.92,NNE,22,0.0,14.2,74,0.00,,,0.00,WUHU21636XXSP,2013-12-20 01:49:00,
2013-12-19 19:54:00,25.2,18.1,29.92,NNE,22,0.0,4.0,74,0.00,,,0.00,WUHU21636XXSP,2013-12-20 01:54:00,
2013-12-19 19:59:00,25.2,18.1,29.91,NNE,22,5.8,5.8,74,0.00,,,0.00,WUHU21636XXSP,2013-12-20 01:59:00,
2013-12-19 20:04:00,25.2,18.1,29.91,NNE,22,6.2,6.2,74,0.00,,,0.00,WUHU21636XXSP,2013-12-20 02:04:00,
2013-12-19 20:09:00,25.2,18.1,29.91,NNE,22,0.0,6.2,74,0.00,,,0.00,WUHU21636XXSP,2013-12-20 02:09:00,
2013-12-19 20:14:00,25.2,18.1,29.91,NNE,22,0.0,0.0,74,0.00,,,0.00,WUHU21636XXSP,2013-12-20 02:14:00,
2013-12-19 20:19:00,25.1,18.0,29.91,NNE,22,0.0,0.0,74,0.00,,,0.00,WUHU21636XXSP,2013-12-20 02:19:00,
2013-12-19 20:24:00,25.1,18.0,29.91,NNE,22,0.0,0.0,74,0.00,,,0.00,WUHU21636XXSP,2013-12-20 02:24:00,
2013-12-19 20:29:00,25.1,18.0,29.91,NNE,22,0.0,0.0,74,0.00,,,0.00,WUHU21636XXSP,2013-12-20 02:29:00,
2013-12-19 20:34:00,25.1,18.3,29.90,NNE,22,0.0,0.0,75,0.00,,,0.00,WUHU21636XXSP,2013-12-20 02:34:00,
2013-12-19 20:39:00,25.1,18.3,29.90,NNE,22,0.0,0.0,75,0.00,,,0.00,WUHU21636XXSP,2013-12-20 02:39:00,
2013-12-19 20:44:00,25.1,18.3,29.90,NNE,22,3.0,3.0,75,0.00,,,0.00,WUHU21636XXSP,2013-12-20 02:44:00,
2013-12-19 20:49:00,24.9,18.1,29.91,NNE,22,0.0,3.0,75,0.00,,,0.00,WUHU21636XXSP,2013-12-20 02:49:00,
2013-12-19 20:54:00,24.9,18.1,29.90,NNE,22,8.0,8.0,75,0.00,,,0.00,WUHU21636XXSP,2013-12-20 02:54:00,
2013-12-19 20:59:00,24.9,18.4,29.90,NNE,22,8.8,8.8,76,0.00,,,0.00,WUHU21636XXSP,2013-12-20 02:59:00,
2013-12-19 21:04:00,24.9,18.4,29.90,NNE,22,4.8,8.8,76,0.00,,,0.00,WUHU21636XXSP,2013-12-20 03:04:00,
2013-12-19 21:09:00,24.9,18.7,29.90,NNE,22,0.4,8.8,77,0.00,,,0.00,WUHU21636XXSP,2013-12-20 03:09:00,
2013-12-19 21:14:00,24.9,18.7,29.91,NNE,22,0.0,7.0,77,0.00,,,0.00,WUHU21636XXSP,2013-12-20 03:14:00,
2013-12-19 21:19:00,24.9,18.7,29.91,NNE,22,0.0,0.4,77,0.00,,,0.00,WUHU21636XXSP,2013-12-20 03:19:00,
2013-12-19 21:24:00,24.5,18.6,29.91,NNE,22,0.0,0.0,78,0.00,,,0.00,WUHU21636XXSP,2013-12-20 03:24:00,
2013-12-19 21:29:00,24.5,18.6,29.91,NNE,22,0.0,0.0,78,0.00,,,0.00,WUHU21636XXSP,2013-12-20 03:29:00,
2013-12-19 21:34:00,24.5,18.6,29.91,NNE,22,0.0,0.0,78,0.00,,,0.00,WUHU21636XXSP,2013-12-20 03:34:00,
2013-12-19 21:39:00,24.3,18.7,29.90,NNE,22,0.0,0.0,79,0.00,,,0.00,WUHU21636XXSP,2013-12-20 03:39:00,
2013-12-19 21:44:00,24.3,18.7,29.90,NNE,22,0.0,0.0,79,0.00,,,0.00,WUHU21636XXSP,2013-12-20 03:44:00,
2013-12-19 21:49:00,24.3,18.7,29.91,NNE,22,0.0,0.0,79,0.00,,,0.00,WUHU21636XXSP,2013-12-20 03:49:00,
2013-12-19 21:54:00,24.5,18.9,29.91,NNE,22,0.0,0.0,79,0.00,,,0.00,WUHU21636XXSP,2013-12-20 03:54:00,
2013-12-19 21:59:00,24.3,18.7,29.91,NNE,22,0.0,0.0,79,0.00,,,0.00,WUHU21636XXSP,2013-12-20 03:59:00,
2013-12-19 22:04:00,24.3,18.7,29.91,NNE,22,0.0,0.0,79,0.00,,,0.00,WUHU21636XXSP,2013-12-20 04:04:00,
2013-12-19 22:09:00,24.3,18.7,29.91,NNE,22,0.0,0.0,79,0.00,,,0.00,WUHU21636XXSP,2013-12-20 04:09:00,
2013-12-19 22:14:00,24.3,19.0,29.91,NNE,22,0.0,0.0,80,0.00,,,0.00,WUHU21636XXSP,2013-12-20 04:14:00,
2013-12-19 22:19:00,24.3,18.7,29.91,NNE,22,0.0,0.0,79,0.00,,,0.00,WUHU21636XXSP,2013-12-20 04:19:00,
2013-12-19 22:24:00,24.1,18.6,29.91,NNE,22,0.0,0.0,79,0.00,,,0.00,WUHU21636XXSP,2013-12-20 04:24:00,
2013-12-19 22:29:00,23.9,18.7,29.90,NNE,22,0.0,0.0,80,0.00,,,0.00,WUHU21636XXSP,2013-12-20 04:29:00,
2013-12-19 22:34:00,23.9,18.7,29.90,NNE,22,0.0,0.0,80,0.00,,,0.00,WUHU21636XXSP,2013-12-20 04:34:00,
2013-12-19 22:39:00,23.9,18.7,29.90,NNE,22,0.0,0.0,80,0.00,,,0.00,WUHU21636XXSP,2013-12-20 04:39:00,
2013-12-19 22:44:00,23.9,18.7,29.90,NNE,22,0.0,0.0,80,0.00,,,0.00,WUHU21636XXSP,2013-12-20 04:44:00,
2013-12-19 22:49:00,23.7,18.5,29.91,NNE,22,0.0,0.0,80,0.00,,,0.00,WUHU21636XXSP,2013-12-20 04:49:00,
2013-12-19 22:54:00,23.7,18.5,29.91,NNE,22,0.0,0.0,80,0.00,,,0.00,WUHU21636XXSP,2013-12-20 04:54:00,
2013-12-19 22:59:00,23.5,18.3,29.91,NNE,22,0.0,0.0,80,0.00,,,0.00,WUHU21636XXSP,2013-12-20 04:59:00,
2013-12-19 23:01:00,23.5,18.3,29.91,NNE,22,0.0,0.0,80,0.00,,,0.00,WUHU21636XXSP,2013-12-20 05:01:00,
2013-12-19 23:06:00,23.3,17.8,29.91,NNE,22,0.0,0.0,79,0.00,,,0.00,WUHU21636XXSP,2013-12-20 05:06:00,
2013-12-19 23:11:00,23.3,18.1,29.91,NNE,22,0.0,0.0,80,0.00,,,0.00,WUHU21636XXSP,2013-12-20 05:11:00,
2013-12-19 23:16:00,23.3,18.1,29.91,NNE,22,0.0,0.0,80,0.00,,,0.00,WUHU21636XXSP,2013-12-20 05:16:00,
2013-12-19 23:21:00,23.3,18.1,29.91,NNE,22,0.0,0.0,80,0.00,,,0.00,WUHU21636XXSP,2013-12-20 05:21:00,
2013-12-19 23:26:00,23.3,18.1,29.91,NNE,22,0.0,0.0,80,0.00,,,0.00,WUHU21636XXSP,2013-12-20 05:26:00,
2013-12-19 23:31:00,23.3,18.1,29.91,NNE,22,0.0,0.0,80,0.00,,,0.00,WUHU21636XXSP,2013-12-20 05:31:00,
2013-12-19 23:36:00,23.3,18.1,29.91,NNE,22,0.0,0.0,80,0.00,,,0.00,WUHU21636XXSP,2013-12-20 05:36:00,
2013-12-19 23:41:00,23.3,18.1,29.91,NNE,22,0.0,0.0,80,0.00,,,0.00,WUHU21636XXSP,2013-12-20 05:41:00,
2013-12-19 23:46:00,23.2,18.0,29.91,NNE,22,0.0,0.0,80,0.00,,,0.00,WUHU21636XXSP,2013-12-20 05:46:00,
2013-12-19 23:47:00,23.2,18.0,29.91,NNE,22,0.0,0.0,80,0.00,,,0.00,WUHU21636XXSP,2013-12-20 05:47:00,
2013-12-19 23:52:00,23.2,18.0,29.91,NNE,22,0.0,0.0,80,0.00,,,0.00,WUHU21636XXSP,2013-12-20 05:52:00,
2013-12-19 23:57:00,23.2,18.0,29.90,NNE,22,0.0,0.0,80,0.00,,,0.00,WUHU21636XXSP,2013-12-20 05:57:00,